createdAt,value
2019-04-30T00:01:20.754Z,2.17
2019-04-30T00:04:09.446Z,2.30
2019-04-30T00:06:40.508Z,2.23
2019-04-30T00:09:17.702Z,2.30
2019-04-30T00:11:50.744Z,2.20
2019-04-30T00:14:20.834Z,2.33
2019-04-30T00:16:52.507Z,2.13
2019-04-30T00:19:23.259Z,2.20
2019-04-30T00:21:57.480Z,2.50
2019-04-30T00:24:26.498Z,1.87
2019-04-30T00:26:58.349Z,2.40
2019-04-30T00:29:30.991Z,2.47
2019-04-30T00:32:04.479Z,2.03
2019-04-30T00:34:36.018Z,2.30
2019-04-30T00:37:13.948Z,2.10
2019-04-30T00:39:44.431Z,2.27
2019-04-30T00:42:18.711Z,2.87
2019-04-30T00:44:46.571Z,2.03
2019-04-30T00:47:18.329Z,2.07
2019-04-30T00:49:52.125Z,2.17
2019-04-30T00:52:21.527Z,1.93
2019-04-30T00:54:52.480Z,2.00
2019-04-30T00:57:26.383Z,2.40
2019-04-30T00:59:57.408Z,2.30
2019-04-30T01:02:32.226Z,2.30
2019-04-30T01:05:22.290Z,2.30
2019-04-30T01:07:54.882Z,1.90
2019-04-30T01:10:28.333Z,2.17
2019-04-30T01:13:07.347Z,2.50
2019-04-30T01:15:32.178Z,2.60
2019-04-30T01:18:03.055Z,2.50
2019-04-30T01:20:34.202Z,2.13
2019-04-30T01:23:09.907Z,1.90
2019-04-30T01:25:43.116Z,2.20
2019-04-30T01:28:16.407Z,2.30
2019-04-30T01:30:44.658Z,2.27
2019-04-30T01:33:19.024Z,2.47
2019-04-30T01:35:49.411Z,2.47
2019-04-30T01:38:20.250Z,2.40
2019-04-30T01:40:51.264Z,2.57
2019-04-30T01:43:30.439Z,2.53
2019-04-30T01:45:54.643Z,2.20
2019-04-30T01:48:29.155Z,2.20
2019-04-30T01:51:01.110Z,2.27
2019-04-30T01:53:32.053Z,2.23
2019-04-30T01:56:04.525Z,3.07
2019-04-30T01:58:39.787Z,2.00
2019-04-30T02:01:16.662Z,2.33
2019-04-30T02:03:48.717Z,2.67
2019-04-30T02:06:19.809Z,2.40
2019-04-30T02:08:50.548Z,2.77
2019-04-30T02:11:22.589Z,2.50
2019-04-30T02:13:53.332Z,2.43
2019-04-30T02:16:24.179Z,2.57
2019-04-30T02:18:55.019Z,2.60
2019-04-30T02:21:29.885Z,2.37
2019-04-30T02:24:00.378Z,2.50
2019-04-30T02:26:31.338Z,3.00
2019-04-30T02:29:02.241Z,2.80
2019-04-30T02:31:34.343Z,2.30
2019-04-30T02:34:09.988Z,2.43
2019-04-30T02:36:40.945Z,2.20
2019-04-30T02:39:11.911Z,2.50
2019-04-30T02:41:46.951Z,2.43
2019-04-30T02:44:19.630Z,2.50
2019-04-30T02:46:52.052Z,2.57
2019-04-30T02:49:24.223Z,3.10
2019-04-30T02:51:59.392Z,2.83
2019-04-30T02:54:31.210Z,2.33
2019-04-30T02:57:03.790Z,2.57
2019-04-30T02:59:34.681Z,2.40
2019-04-30T03:02:05.464Z,2.50
2019-04-30T03:04:39.363Z,2.20
2019-04-30T03:07:09.826Z,2.33
2019-04-30T03:09:42.129Z,2.57
2019-04-30T03:12:13.100Z,3.10
2019-04-30T03:14:43.977Z,2.77
2019-04-30T03:17:16.573Z,2.83
2019-04-30T03:20:03.432Z,3.10
2019-04-30T03:22:33.490Z,2.80
2019-04-30T03:25:05.756Z,2.93
2019-04-30T03:27:36.747Z,2.60
2019-04-30T03:30:11.844Z,3.27
2019-04-30T03:32:42.852Z,2.87
2019-04-30T03:35:13.930Z,2.80
2019-04-30T03:37:46.025Z,2.40
2019-04-30T03:40:16.916Z,2.67
2019-04-30T03:42:49.414Z,2.93
2019-04-30T03:45:20.607Z,3.17
2019-04-30T03:47:52.888Z,2.80
2019-04-30T03:50:23.787Z,2.67
2019-04-30T03:52:54.724Z,3.00
2019-04-30T03:55:25.623Z,2.67
2019-04-30T03:58:00.134Z,2.63
2019-04-30T04:00:32.246Z,3.03
2019-04-30T04:03:03.193Z,2.50
2019-04-30T04:05:39.909Z,2.53
2019-04-30T04:08:14.072Z,2.27
2019-04-30T04:10:46.510Z,3.10
2019-04-30T04:13:19.650Z,2.80
2019-04-30T04:15:50.095Z,3.03
2019-04-30T04:18:22.320Z,2.90
2019-04-30T04:21:12.147Z,2.77
2019-04-30T04:23:34.642Z,2.70
2019-04-30T04:26:05.726Z,2.87
2019-04-30T04:28:40.896Z,3.20
2019-04-30T04:31:09.685Z,3.00
2019-04-30T04:33:40.571Z,2.63
2019-04-30T04:36:11.390Z,3.10
2019-04-30T04:38:44.547Z,2.70
2019-04-30T04:41:15.469Z,3.60
2019-04-30T04:43:46.344Z,2.90
2019-04-30T04:46:20.580Z,2.73
2019-04-30T04:48:54.208Z,3.20
2019-04-30T04:51:36.557Z,4.33
2019-04-30T04:54:00.092Z,2.90
2019-04-30T04:56:30.582Z,2.83
2019-04-30T04:59:01.565Z,3.20
2019-04-30T05:01:32.528Z,2.87
2019-04-30T05:04:03.332Z,3.63
2019-04-30T05:06:35.635Z,2.97
2019-04-30T05:09:07.163Z,2.87
2019-04-30T05:11:39.578Z,3.20
2019-04-30T05:14:10.959Z,3.27
2019-04-30T05:16:43.590Z,3.10
2019-04-30T05:19:14.585Z,4.00
2019-04-30T05:21:45.535Z,3.33
2019-04-30T05:24:16.497Z,3.03
2019-04-30T05:26:48.801Z,3.00
2019-04-30T05:29:20.011Z,2.97
2019-04-30T05:31:51.666Z,3.03
2019-04-30T05:34:22.967Z,3.00
2019-04-30T05:36:54.067Z,3.00
2019-04-30T05:39:25.654Z,2.73
2019-04-30T05:41:58.832Z,3.50
2019-04-30T05:44:29.846Z,3.23
2019-04-30T05:47:02.274Z,2.70
2019-04-30T05:49:33.256Z,2.50
2019-04-30T05:52:04.442Z,2.63
2019-04-30T05:54:36.357Z,2.77
2019-04-30T05:57:09.491Z,2.53
2019-04-30T05:59:40.954Z,2.87
2019-04-30T06:02:12.210Z,2.53
2019-04-30T06:04:43.547Z,2.40
2019-04-30T06:07:16.174Z,2.17
2019-04-30T06:09:52.348Z,2.27
2019-04-30T06:12:25.095Z,2.70
2019-04-30T06:15:03.816Z,2.70
2019-04-30T06:17:35.324Z,2.60
2019-04-30T06:20:17.816Z,2.43
2019-04-30T06:22:39.575Z,2.37
2019-04-30T06:25:10.953Z,2.57
2019-04-30T06:27:43.318Z,2.67
2019-04-30T06:30:14.368Z,2.33
2019-04-30T06:32:45.374Z,2.10
2019-04-30T06:35:16.320Z,2.33
2019-04-30T06:37:48.841Z,2.37
2019-04-30T06:40:20.231Z,2.33
2019-04-30T06:42:51.198Z,2.37
2019-04-30T06:45:22.150Z,2.00
2019-04-30T06:47:54.773Z,1.80
2019-04-30T06:50:25.750Z,2.27
2019-04-30T06:52:58.922Z,1.93
2019-04-30T06:55:30.654Z,2.10
2019-04-30T06:58:12.063Z,2.03
2019-04-30T07:00:39.618Z,2.62
2019-04-30T07:03:11.074Z,1.87
2019-04-30T07:05:43.149Z,2.05
2019-04-30T07:08:37.280Z,2.00
2019-04-30T07:11:20.583Z,2.00
2019-04-30T07:13:52.563Z,2.50
2019-04-30T07:16:24.235Z,1.67
2019-04-30T07:18:55.471Z,2.15
2019-04-30T07:21:31.618Z,1.90
2019-04-30T07:24:02.209Z,2.33
2019-04-30T07:26:35.692Z,1.77
2019-04-30T07:29:09.643Z,2.20
2019-04-30T07:31:41.614Z,2.22
2019-04-30T07:34:13.522Z,2.08
2019-04-30T07:36:51.466Z,1.60
2019-04-30T07:39:23.408Z,2.10
2019-04-30T07:41:54.124Z,2.15
2019-04-30T07:44:34.093Z,1.72
2019-04-30T07:46:59.408Z,2.25
2019-04-30T07:49:47.096Z,2.20
2019-04-30T07:52:06.946Z,1.90
2019-04-30T07:54:39.609Z,1.98
2019-04-30T07:57:12.532Z,1.57
2019-04-30T07:59:45.381Z,2.08
2019-04-30T08:02:20.519Z,2.05
2019-04-30T08:04:51.615Z,1.75
2019-04-30T08:07:24.414Z,1.72
2019-04-30T08:09:56.093Z,1.95
2019-04-30T08:12:33.508Z,1.82
2019-04-30T08:15:01.341Z,1.85
2019-04-30T08:17:34.598Z,1.92
2019-04-30T08:20:08.736Z,1.50
2019-04-30T08:22:41.138Z,1.62
2019-04-30T08:25:13.203Z,1.60
2019-04-30T08:27:46.235Z,1.42
2019-04-30T08:30:26.072Z,1.80
2019-04-30T08:32:52.111Z,1.70
2019-04-30T08:35:25.402Z,1.80
2019-04-30T08:37:59.062Z,1.80
2019-04-30T08:40:30.579Z,1.67
2019-04-30T08:43:01.798Z,1.65
2019-04-30T08:45:35.444Z,1.60
2019-04-30T08:48:09.652Z,2.02
2019-04-30T08:50:41.364Z,2.02
2019-04-30T08:53:26.280Z,1.67
2019-04-30T08:55:49.215Z,1.70
2019-04-30T08:58:22.544Z,1.80
2019-04-30T09:00:54.393Z,1.70
2019-04-30T09:03:26.486Z,1.52
2019-04-30T09:06:00.097Z,1.57
2019-04-30T09:08:32.479Z,1.95
2019-04-30T09:11:04.234Z,1.80
2019-04-30T09:13:35.702Z,1.50
2019-04-30T09:16:09.278Z,1.47
2019-04-30T09:18:42.270Z,1.70
2019-04-30T09:21:14.088Z,1.70
2019-04-30T09:23:51.921Z,1.60
2019-04-30T09:26:22.509Z,1.30
2019-04-30T09:28:53.869Z,1.50
2019-04-30T09:31:26.676Z,1.50
2019-04-30T09:34:00.365Z,1.20
2019-04-30T09:36:31.344Z,1.57
2019-04-30T09:39:02.321Z,1.02
2019-04-30T09:41:35.536Z,1.65
2019-04-30T09:44:07.627Z,1.45
2019-04-30T09:46:40.624Z,1.30
2019-04-30T09:49:14.161Z,1.80
2019-04-30T09:51:45.120Z,1.67
2019-04-30T09:54:19.400Z,1.17
2019-04-30T09:56:53.103Z,1.30
2019-04-30T09:59:24.781Z,1.37
2019-04-30T10:01:57.626Z,1.27
2019-04-30T10:04:30.266Z,1.40
2019-04-30T10:07:03.799Z,1.50
2019-04-30T10:09:36.183Z,1.07
2019-04-30T10:12:12.506Z,1.25
2019-04-30T10:14:44.217Z,1.60
2019-04-30T10:17:32.627Z,1.00
2019-04-30T10:20:05.621Z,1.40
2019-04-30T10:22:39.945Z,1.57
2019-04-30T10:25:11.682Z,1.50
2019-04-30T10:27:46.499Z,1.27
2019-04-30T10:30:22.774Z,1.40
2019-04-30T10:32:54.823Z,1.32
2019-04-30T10:35:28.467Z,0.85
2019-04-30T10:38:00.509Z,1.37
2019-04-30T10:40:31.460Z,1.20
2019-04-30T10:43:03.132Z,1.10
2019-04-30T10:45:35.052Z,1.17
2019-04-30T10:48:08.344Z,1.25
2019-04-30T10:50:40.926Z,0.90
2019-04-30T10:53:12.499Z,1.30
2019-04-30T10:55:44.887Z,0.90
2019-04-30T10:58:18.179Z,1.45
2019-04-30T11:00:50.068Z,0.88
2019-04-30T11:03:23.030Z,0.90
2019-04-30T11:05:54.030Z,1.27
2019-04-30T11:08:25.974Z,1.22
2019-04-30T11:10:58.589Z,1.40
2019-04-30T11:13:30.858Z,1.45
2019-04-30T11:16:12.064Z,1.00
2019-04-30T11:18:35.962Z,1.10
2019-04-30T11:21:09.751Z,1.17
2019-04-30T11:23:42.096Z,1.07
2019-04-30T11:26:14.685Z,1.25
2019-04-30T11:28:46.719Z,1.10
2019-04-30T11:31:24.463Z,1.07
2019-04-30T11:34:00.765Z,1.00
2019-04-30T11:36:36.323Z,1.32
2019-04-30T11:39:11.243Z,1.30
2019-04-30T11:41:44.615Z,1.00
2019-04-30T11:44:29.869Z,0.98
2019-04-30T11:47:09.489Z,1.20
2019-04-30T11:49:41.311Z,1.30
2019-04-30T11:52:13.439Z,1.07
2019-04-30T11:54:51.620Z,1.00
2019-04-30T11:57:19.146Z,1.07
2019-04-30T11:59:51.909Z,1.17
2019-04-30T12:02:26.451Z,1.00
2019-04-30T12:04:58.457Z,1.32
2019-04-30T12:07:33.957Z,1.25
2019-04-30T12:10:12.369Z,1.25
2019-04-30T12:12:44.390Z,1.20
2019-04-30T12:15:16.305Z,1.25
2019-04-30T12:17:47.743Z,1.10
2019-04-30T12:20:23.622Z,1.37
2019-04-30T12:22:55.199Z,1.55
2019-04-30T12:25:27.327Z,1.45
2019-04-30T12:27:59.581Z,1.30
2019-04-30T12:30:32.235Z,1.22
2019-04-30T12:33:04.257Z,1.20
2019-04-30T12:35:37.247Z,1.05
2019-04-30T12:38:09.691Z,1.50
2019-04-30T12:40:43.329Z,1.12
2019-04-30T12:43:14.411Z,1.42
2019-04-30T12:45:45.782Z,1.50
2019-04-30T12:48:20.260Z,1.32
2019-04-30T12:51:00.658Z,1.37
2019-04-30T12:53:39.582Z,1.32
2019-04-30T12:56:28.848Z,1.45
2019-04-30T12:59:00.988Z,1.45
2019-04-30T13:01:34.272Z,1.90
2019-04-30T13:04:05.555Z,1.50
2019-04-30T13:06:38.366Z,1.50
2019-04-30T13:09:14.003Z,1.75
2019-04-30T13:11:46.591Z,1.72
2019-04-30T13:14:20.003Z,1.25
2019-04-30T13:16:55.607Z,1.50
2019-04-30T13:19:30.363Z,1.60
2019-04-30T13:22:03.206Z,1.40
2019-04-30T13:24:34.915Z,1.55
2019-04-30T13:27:06.892Z,1.35
2019-04-30T13:29:51.219Z,1.25
2019-04-30T13:32:30.201Z,1.70
2019-04-30T13:35:00.689Z,1.22
2019-04-30T13:37:31.770Z,1.40
2019-04-30T13:40:09.803Z,1.80
2019-04-30T13:42:42.666Z,1.50
2019-04-30T13:45:14.616Z,1.37
2019-04-30T13:47:46.728Z,1.80
2019-04-30T13:50:19.738Z,1.55
2019-04-30T13:52:50.906Z,1.22
2019-04-30T13:55:21.874Z,1.40
2019-04-30T13:57:53.351Z,1.60
2019-04-30T14:00:25.755Z,1.57
2019-04-30T14:02:59.204Z,1.40
2019-04-30T14:05:30.727Z,1.67
2019-04-30T14:08:06.181Z,1.52
2019-04-30T14:10:39.279Z,1.32
2019-04-30T14:13:12.027Z,1.45
2019-04-30T14:15:44.012Z,1.57
2019-04-30T14:18:27.670Z,1.32
2019-04-30T14:20:47.322Z,1.40
2019-04-30T14:23:19.163Z,1.40
2019-04-30T14:25:56.387Z,1.30
2019-04-30T14:28:22.642Z,1.67
2019-04-30T14:30:53.839Z,1.27
2019-04-30T14:33:26.762Z,1.55
2019-04-30T14:36:00.603Z,1.35
2019-04-30T14:38:30.791Z,1.55
2019-04-30T14:41:02.428Z,1.35
2019-04-30T14:43:43.698Z,1.60
2019-04-30T14:46:34.779Z,1.47
2019-04-30T14:49:24.937Z,1.20
2019-04-30T14:51:56.636Z,1.25
2019-04-30T14:54:32.266Z,1.50
2019-04-30T14:57:05.065Z,1.47
2019-04-30T14:59:45.461Z,1.70
2019-04-30T15:02:24.112Z,1.85
2019-04-30T15:04:55.023Z,1.52
2019-04-30T15:07:26.024Z,1.45
2019-04-30T15:09:56.840Z,1.50
2019-04-30T15:12:27.797Z,1.35
2019-04-30T15:14:59.708Z,1.45
2019-04-30T15:17:30.679Z,1.27
2019-04-30T15:20:01.633Z,1.30
2019-04-30T15:22:33.826Z,1.40
2019-04-30T15:25:06.990Z,1.25
2019-04-30T15:27:45.299Z,1.27
2019-04-30T15:30:12.602Z,1.60
2019-04-30T15:32:45.219Z,1.20
2019-04-30T15:35:19.305Z,0.80
2019-04-30T15:37:51.935Z,1.10
2019-04-30T15:40:28.774Z,1.20
2019-04-30T15:43:03.429Z,1.50
2019-04-30T15:45:34.662Z,1.15
2019-04-30T15:48:08.540Z,1.02
2019-04-30T15:50:43.226Z,1.00
2019-04-30T15:53:16.724Z,1.15
2019-04-30T15:55:48.458Z,1.12
2019-04-30T15:58:21.786Z,1.15
2019-04-30T16:00:54.223Z,1.15
2019-04-30T16:03:27.721Z,1.10
2019-04-30T16:05:59.142Z,1.30
2019-04-30T16:08:35.186Z,1.20
2019-04-30T16:11:19.353Z,1.32
2019-04-30T16:14:08.478Z,1.77
2019-04-30T16:16:41.395Z,3.55
2019-04-30T16:19:12.443Z,10.58
2019-04-30T16:21:44.019Z,4.83
2019-04-30T16:24:15.029Z,2.12
2019-04-30T16:26:49.961Z,2.70
2019-04-30T16:29:20.562Z,1.60
2019-04-30T16:31:51.834Z,1.80
2019-04-30T16:34:23.319Z,2.67
2019-04-30T16:36:54.562Z,2.70
2019-04-30T16:39:28.787Z,3.50
2019-04-30T16:41:59.911Z,29.02
2019-04-30T16:44:32.700Z,4.05
2019-04-30T16:47:13.676Z,5.35
2019-04-30T16:49:38.754Z,2.40
2019-04-30T16:52:09.860Z,11.90
2019-04-30T16:54:40.818Z,2.90
2019-04-30T16:57:11.655Z,1.75
2019-04-30T16:59:43.667Z,1.25
2019-04-30T17:02:15.106Z,1.50
2019-04-30T17:04:50.230Z,2.05
2019-04-30T17:07:26.467Z,2.83
2019-04-30T17:10:14.542Z,2.95
2019-04-30T17:13:02.203Z,2.50
2019-04-30T17:15:34.750Z,1.85
2019-04-30T17:18:09.809Z,1.62
2019-04-30T17:20:39.788Z,1.55
2019-04-30T17:23:12.987Z,2.12
2019-04-30T17:25:44.541Z,2.05
2019-04-30T17:28:16.090Z,3.90
2019-04-30T17:30:53.676Z,6.58
2019-04-30T17:33:27.338Z,7.40
2019-04-30T17:35:59.465Z,6.75
2019-04-30T17:38:33.209Z,10.53
2019-04-30T17:41:05.733Z,10.45
2019-04-30T17:43:41.663Z,10.05
2019-04-30T17:46:13.206Z,9.33
2019-04-30T17:48:49.545Z,7.85
2019-04-30T17:51:24.892Z,7.58
2019-04-30T17:54:20.174Z,5.78
2019-04-30T17:56:52.504Z,4.60
2019-04-30T17:59:23.530Z,4.03
2019-04-30T18:02:01.025Z,3.70
2019-04-30T18:04:39.417Z,3.98
2019-04-30T18:07:19.669Z,2.95
2019-04-30T18:09:50.740Z,4.00
2019-04-30T18:12:24.338Z,3.47
2019-04-30T18:15:00.063Z,2.85
2019-04-30T18:17:36.895Z,3.12
2019-04-30T18:20:13.261Z,2.87
2019-04-30T18:23:02.679Z,2.87
2019-04-30T18:25:54.252Z,5.00
2019-04-30T18:28:25.983Z,4.75
2019-04-30T18:30:58.895Z,3.70
2019-04-30T18:33:29.932Z,2.67
2019-04-30T18:36:03.123Z,2.30
2019-04-30T18:38:40.514Z,2.30
2019-04-30T18:41:13.181Z,1.72
2019-04-30T18:43:51.607Z,2.10
2019-04-30T18:46:29.200Z,2.15
2019-04-30T18:49:07.410Z,1.92
2019-04-30T18:51:42.414Z,2.08
2019-04-30T18:54:11.636Z,2.00
2019-04-30T18:59:40.340Z,2.20
2019-04-30T19:02:14.306Z,2.20
2019-04-30T19:04:49.584Z,1.75
2019-04-30T19:07:28.171Z,2.20
2019-04-30T19:10:23.514Z,1.90
2019-04-30T19:13:00.314Z,1.75
2019-04-30T19:16:11.340Z,4.45
2019-04-30T19:18:15.841Z,3.70
2019-04-30T19:20:53.543Z,10.00
2019-04-30T19:23:30.443Z,16.17
2019-04-30T19:26:04.504Z,22.07
2019-04-30T19:28:38.688Z,26.48
2019-04-30T19:31:15.462Z,17.90
2019-04-30T19:33:51.173Z,24.20
2019-04-30T19:36:35.142Z,38.67
2019-04-30T19:39:02.711Z,26.05
2019-04-30T19:41:38.650Z,19.17
2019-04-30T19:44:14.356Z,17.98
2019-04-30T19:46:48.811Z,11.70
2019-04-30T19:49:24.317Z,7.58
2019-04-30T19:52:11.811Z,6.58
2019-04-30T19:54:45.510Z,5.25
2019-04-30T19:57:19.144Z,3.77
2019-04-30T19:59:52.993Z,4.45
2019-04-30T20:02:34.536Z,3.50
2019-04-30T20:05:11.526Z,2.33
2019-04-30T20:07:47.109Z,2.77
2019-04-30T20:10:19.671Z,3.73
2019-04-30T20:12:58.767Z,5.50
2019-04-30T20:15:31.971Z,4.92
2019-04-30T20:18:04.441Z,3.37
2019-04-30T20:20:39.730Z,2.77
2019-04-30T20:23:13.543Z,2.72
2019-04-30T20:25:45.652Z,2.60
2019-04-30T20:28:20.460Z,2.60
2019-04-30T20:30:53.395Z,2.27
2019-04-30T20:33:26.306Z,2.42
2019-04-30T20:35:59.039Z,2.42
2019-04-30T20:38:32.748Z,3.00
2019-04-30T20:41:09.322Z,2.37
2019-04-30T20:43:42.002Z,2.67
2019-04-30T20:46:14.113Z,2.80
2019-04-30T20:48:49.173Z,2.50
2019-04-30T20:51:21.815Z,2.58
2019-04-30T20:53:56.010Z,2.47
2019-04-30T20:56:29.117Z,2.50
2019-04-30T20:59:06.274Z,2.98
2019-04-30T21:01:35.052Z,2.87
2019-04-30T21:04:08.173Z,3.37
2019-04-30T21:06:41.275Z,3.65
2019-04-30T21:09:13.154Z,2.95
2019-04-30T21:11:45.709Z,3.30
2019-04-30T21:14:19.854Z,3.60
2019-04-30T21:16:51.266Z,3.55
2019-04-30T21:19:22.855Z,3.92
2019-04-30T21:21:56.671Z,3.15
2019-04-30T21:24:28.689Z,3.60
2019-04-30T21:27:04.891Z,3.00
2019-04-30T21:29:39.151Z,3.55
2019-04-30T21:32:28.678Z,3.47
2019-04-30T21:35:02.995Z,3.75
2019-04-30T21:37:34.177Z,3.75
2019-04-30T21:40:12.662Z,4.37
2019-04-30T21:42:45.425Z,4.40
2019-04-30T21:45:16.707Z,4.53
2019-04-30T21:47:56.036Z,4.55
2019-04-30T21:50:20.778Z,4.60
2019-04-30T21:52:59.895Z,5.08
2019-04-30T21:55:32.351Z,5.10
2019-04-30T21:58:03.699Z,5.65
2019-04-30T22:00:39.606Z,5.00
2019-04-30T22:03:12.018Z,5.10
2019-04-30T22:05:44.350Z,5.45
2019-04-30T22:08:21.799Z,4.95
2019-04-30T22:10:53.267Z,5.90
2019-04-30T22:13:26.990Z,5.65
2019-04-30T22:16:00.154Z,6.17
2019-04-30T22:18:32.815Z,6.42
2019-04-30T22:21:04.861Z,5.45
2019-04-30T22:23:36.025Z,4.53
2019-04-30T22:26:07.239Z,4.17
2019-04-30T22:28:41.270Z,4.05
2019-04-30T22:31:14.099Z,4.67
2019-04-30T22:33:45.290Z,5.70
2019-04-30T22:36:18.970Z,5.50
2019-04-30T22:38:51.536Z,5.23
2019-04-30T22:41:29.700Z,5.03
2019-04-30T22:44:04.321Z,5.00
2019-04-30T22:46:39.444Z,5.57
2019-04-30T22:49:12.930Z,6.83
2019-04-30T22:51:46.248Z,6.53
2019-04-30T22:54:20.565Z,6.72
2019-04-30T22:56:52.422Z,6.28
2019-04-30T22:59:24.288Z,6.75
2019-04-30T23:01:57.442Z,7.30
2019-04-30T23:04:33.949Z,7.67
2019-04-30T23:07:05.391Z,7.05
2019-04-30T23:09:36.607Z,7.83
2019-04-30T23:12:09.929Z,8.23
2019-04-30T23:14:40.916Z,8.47
2019-04-30T23:17:11.887Z,9.10
2019-04-30T23:19:49.342Z,9.37
2019-04-30T23:22:16.715Z,10.13
2019-04-30T23:24:47.690Z,9.87
2019-04-30T23:27:18.628Z,10.40
2019-04-30T23:30:02.496Z,10.30
2019-04-30T23:32:22.163Z,9.87
2019-04-30T23:34:52.876Z,10.40
2019-04-30T23:37:23.712Z,10.18
2019-04-30T23:39:54.595Z,10.93
2019-04-30T23:42:26.878Z,9.90
2019-04-30T23:44:57.753Z,11.10
2019-04-30T23:47:28.712Z,11.13
2019-04-30T23:49:59.495Z,11.33
2019-04-30T23:52:30.362Z,10.60
2019-04-30T23:55:01.300Z,10.87
2019-04-30T23:57:32.236Z,11.80
